Terminal Aerodrome Forecast
Issued by NWS

Current Version | Previous Version | Text Only | Print | Product List | Glossary On
Versions: 1 2 3 4 5 6 7 8 9 10 11 12 13 14
551
FTUS46 KSEW 180525
TAFBLI
TAF
KBLI 180525Z 1806/1906 15025G40KT P6SM -RA SCT025 OVC070
     FM180800 15020G35KT P6SM -RA BKN025 OVC060
     FM181600 15020G35KT P6SM -SHRA BKN020 OVC040
     FM190300 15012KT P6SM -SHRA BKN015 OVC030=

USA.gov is the U.S. government's official web portal to all federal, state and local government web resources and services.